Martin Challenger — WDB2346 — position and weather

sailwx.info

Track history (hours):
 
Tides and Currents Weather Stations Pressure Air Temp Water Temp Dewpoint Dewpoint Depression Visibility Wind Speed Wind Dir Waves Ship Positions

Martin Challenger

Owner: MARTIN OPERATING PARTNERSHIP LP, La Porte, TX. More information available from US FCC via Universal Licensing System and Coast Guard Vessel Documentation Center.

Last reported at 2017-Nov-18 12:35 UTC. Time now 2017-Nov-18 14:10 UTC.
Position N 29°37' W 090°59'.

Length 20 m.

MMSI: 366874920.

Date/timePositionNaut miles runAvg speedWind from/ knotsBaromVisibWave heightAir tempDewpointWater temp
2017-Nov-18 12:35N 29°37' W 090°59'1 5.7
2017-Nov-18 12:23N 29°36' W 090°58'2 5.5
2017-Nov-18 12:00N 29°34' W 090°57'3 5.8
2017-Nov-18 11:29N 29°33' W 090°54'3 5.4
2017-Nov-18 11:00N 29°32' W 090°51'3 6.2
2017-Nov-18 10:30N 29°32' W 090°47'2 4.4
2017-Nov-18 10:00N 29°33' W 090°45'2 4.3
2017-Nov-18 09:30N 29°34' W 090°43'2 4.1
2017-Nov-18 09:00N 29°36' W 090°43'2 3.8
2017-Nov-18 08:30N 29°36' W 090°40'2 3.5
2017-Nov-18 08:00N 29°35' W 090°39'0 0.0
2017-Nov-18 07:30N 29°35' W 090°39'0 0.0
2017-Nov-18 07:00N 29°35' W 090°39'0 0.0
2017-Nov-18 06:30N 29°35' W 090°39'0 0.0
2017-Nov-18 06:00N 29°35' W 090°39'0 0.0
2017-Nov-18 05:30N 29°35' W 090°39'0 0.0
2017-Nov-18 05:00N 29°35' W 090°39'0 0.0
2017-Nov-18 04:30N 29°35' W 090°39'0 0.0
2017-Nov-18 04:00N 29°35' W 090°39'0 0.0
2017-Nov-18 03:30N 29°35' W 090°39'0 0.0
2017-Nov-18 03:00N 29°35' W 090°39'0 0.2
2017-Nov-18 02:30N 29°35' W 090°38'2 3.8
2017-Nov-18 02:00N 29°35' W 090°36'2 3.9
2017-Nov-18 01:30N 29°34' W 090°34'2 4.3
2017-Nov-18 01:00N 29°34' W 090°32'3 4.6
2017-Nov-18 00:27N 29°34' W 090°29'  
Track history (hours):
 
Tides and Currents Weather Stations Pressure Air Temp Water Temp Dewpoint Dewpoint Depression Visibility Wind Speed Wind Dir Waves Ship Positions

Martin Challenger

Owner: MARTIN OPERATING PARTNERSHIP LP, La Porte, TX. More information available from US FCC via Universal Licensing System and Coast Guard Vessel Documentation Center.

Last reported at 2017-Nov-18 12:35 UTC. Time now 2017-Nov-18 14:10 UTC.
Position N 29°37' W 090°59'.

Length 20 m.

MMSI: 366874920.

Date/timePositionNaut miles runAvg speedWind from/ knotsBaromVisibWave heightAir tempDewpointWater temp
2017-Nov-18 12:35N 29°37' W 090°59'1 5.7
2017-Nov-18 12:23N 29°36' W 090°58'2 5.5
2017-Nov-18 12:00N 29°34' W 090°57'3 5.8
2017-Nov-18 11:29N 29°33' W 090°54'3 5.4
2017-Nov-18 11:00N 29°32' W 090°51'3 6.2
2017-Nov-18 10:30N 29°32' W 090°47'2 4.4
2017-Nov-18 10:00N 29°33' W 090°45'2 4.3
2017-Nov-18 09:30N 29°34' W 090°43'2 4.1
2017-Nov-18 09:00N 29°36' W 090°43'2 3.8
2017-Nov-18 08:30N 29°36' W 090°40'2 3.5
2017-Nov-18 08:00N 29°35' W 090°39'0 0.0
2017-Nov-18 07:30N 29°35' W 090°39'0 0.0
2017-Nov-18 07:00N 29°35' W 090°39'0 0.0
2017-Nov-18 06:30N 29°35' W 090°39'0 0.0
2017-Nov-18 06:00N 29°35' W 090°39'0 0.0
2017-Nov-18 05:30N 29°35' W 090°39'0 0.0
2017-Nov-18 05:00N 29°35' W 090°39'0 0.0
2017-Nov-18 04:30N 29°35' W 090°39'0 0.0
2017-Nov-18 04:00N 29°35' W 090°39'0 0.0
2017-Nov-18 03:30N 29°35' W 090°39'0 0.0
2017-Nov-18 03:00N 29°35' W 090°39'0 0.2
2017-Nov-18 02:30N 29°35' W 090°38'2 3.8
2017-Nov-18 02:00N 29°35' W 090°36'2 3.9
2017-Nov-18 01:30N 29°34' W 090°34'2 4.3
2017-Nov-18 01:00N 29°34' W 090°32'3 4.6
2017-Nov-18 00:27N 29°34' W 090°29'  

Dump ship's entire track history